Wendover, United Kingdom
Current Conditions -  °F | °C
As of 5:20 AM on Friday 31 Oct 2014 (Local Time) from EGGW Reporting Station
Haze Haze  
Wind Chill: 57°   Ceiling: 200
Heat Index: 57°   Visibility: 1.1mi
Dew Point: 57°   Wind: 9mph
Humidity: 100%   Direction: 180°S
Pressure: 30.03"   Gusts: NA
Location:  51.76°N, 0.74°W
Report Text: EGGW 310520Z 18008KT 150V210 1800 BR OVC002 14/14 Q1017
Loading
Personal Weather Stations






























Interactive Weather Map
Tropical Storm Tracking
New forecast layout! Learn more

10-Day Weather Forecast

Advertisements
Track Severe Weather on mobile